createdAt,value
2023-04-06T12:27:33.621Z,123.75
2023-04-06T12:28:33.599Z,123.75
2023-04-06T12:29:33.606Z,123.75
2023-04-06T12:30:33.489Z,123.75
2023-04-06T12:31:33.578Z,84.38
2023-04-06T12:32:33.481Z,123.75
2023-04-06T12:33:33.418Z,101.25
2023-04-06T12:34:33.383Z,84.38
2023-04-06T12:35:33.372Z,101.25
2023-04-06T12:36:33.411Z,123.75
2023-04-06T12:37:33.408Z,67.50
2023-04-06T12:38:33.341Z,118.12
2023-04-06T12:39:33.323Z,84.38
2023-04-06T12:40:33.329Z,118.12
2023-04-06T12:41:33.382Z,106.88
2023-04-06T12:42:33.302Z,67.50
2023-04-06T12:43:33.300Z,129.38
2023-04-06T12:44:33.350Z,129.38
2023-04-06T12:45:33.263Z,129.38
2023-04-06T12:46:33.272Z,106.88
2023-04-06T12:47:33.271Z,129.38
2023-04-06T12:48:33.257Z,129.38
2023-04-06T12:49:33.229Z,106.88
2023-04-06T12:50:33.232Z,106.88
2023-04-06T12:51:33.186Z,140.62
2023-04-06T12:52:33.198Z,140.62
2023-04-06T12:53:33.218Z,140.62
2023-04-06T12:54:33.211Z,106.88
2023-04-06T12:55:33.143Z,129.38
2023-04-06T12:56:33.179Z,140.62
2023-04-06T12:57:33.132Z,140.62
2023-04-06T12:58:33.124Z,140.62
2023-04-06T12:59:33.162Z,140.62
2023-04-06T13:00:33.263Z,106.88
2023-04-06T13:01:33.129Z,123.75
2023-04-06T13:02:33.105Z,135.00
2023-04-06T13:03:33.066Z,135.00
2023-04-06T13:04:33.077Z,140.62
2023-04-06T13:05:33.671Z,140.62
2023-04-06T13:06:33.022Z,140.62
2023-04-06T13:07:33.024Z,140.62
2023-04-06T13:08:32.994Z,140.62
2023-04-06T13:09:32.983Z,146.25
2023-04-06T13:10:32.977Z,146.25
2023-04-06T13:11:32.968Z,146.25
2023-04-06T13:12:32.976Z,151.88
2023-04-06T13:13:32.938Z,151.88
2023-04-06T13:14:32.988Z,151.88
2023-04-06T13:15:32.934Z,146.25
2023-04-06T13:16:33.071Z,140.62
2023-04-06T13:17:32.958Z,140.62
2023-04-06T13:18:32.905Z,146.25
2023-04-06T13:19:32.878Z,146.25
2023-04-06T13:20:32.857Z,146.25
2023-04-06T13:21:32.865Z,146.25
2023-04-06T13:22:32.837Z,146.25
2023-04-06T13:23:32.810Z,140.62
2023-04-06T13:24:32.816Z,140.62
2023-04-06T13:25:32.814Z,146.25
2023-04-06T13:26:32.829Z,146.25
2023-04-06T13:27:32.780Z,146.25
2023-04-06T13:28:32.771Z,146.25
2023-04-06T13:29:32.741Z,146.25
2023-04-06T13:30:32.756Z,146.25
2023-04-06T13:31:32.781Z,146.25
2023-04-06T13:32:32.744Z,146.25
2023-04-06T13:33:32.699Z,146.25
2023-04-06T13:34:33.891Z,146.25
2023-04-06T13:35:32.732Z,146.25
2023-04-06T13:36:32.756Z,146.25
2023-04-06T13:37:32.684Z,146.25
2023-04-06T13:38:32.652Z,146.25
2023-04-06T13:39:32.651Z,146.25
2023-04-06T13:40:32.656Z,146.25
2023-04-06T13:41:32.616Z,146.25
2023-04-06T13:42:32.613Z,146.25
2023-04-06T13:43:32.592Z,151.88
2023-04-06T13:44:32.608Z,151.88
2023-04-06T13:45:32.564Z,151.88
2023-04-06T13:46:55.297Z,151.88
2023-04-06T13:47:33.803Z,151.88
2023-04-06T13:48:32.528Z,151.88
2023-04-06T13:49:32.538Z,151.88
2023-04-06T13:50:32.552Z,157.50
2023-04-06T13:51:32.534Z,157.50
2023-04-06T13:52:42.166Z,151.88
2023-04-06T13:53:32.471Z,151.88
2023-04-06T13:54:32.464Z,151.88
2023-04-06T13:55:32.465Z,151.88
2023-04-06T13:56:32.471Z,151.88
2023-04-06T13:57:32.454Z,151.88
2023-04-06T13:58:32.435Z,151.88
2023-04-06T13:59:32.408Z,151.88
2023-04-06T14:00:32.469Z,151.88
2023-04-06T14:01:32.440Z,151.88
2023-04-06T14:02:32.461Z,151.88
2023-04-06T14:03:32.464Z,151.88
2023-04-06T14:04:32.325Z,151.88
2023-04-06T14:05:32.311Z,151.88
2023-04-06T14:06:32.362Z,151.88
2023-04-06T14:07:32.305Z,151.88
2023-04-06T14:08:32.277Z,157.50
2023-04-06T14:09:32.262Z,157.50
2023-04-06T14:10:32.253Z,157.50
2023-04-06T14:11:32.240Z,157.50
2023-04-06T14:12:32.259Z,157.50
2023-04-06T14:13:32.235Z,157.50
2023-04-06T14:14:32.207Z,157.50
2023-04-06T14:15:32.283Z,157.50
2023-04-06T14:16:32.243Z,157.50
2023-04-06T14:17:32.223Z,157.50
2023-04-06T14:18:32.188Z,157.50
2023-04-06T14:19:32.152Z,157.50
2023-04-06T14:20:32.852Z,157.50
2023-04-06T14:21:32.138Z,157.50
2023-04-06T14:22:32.127Z,157.50
2023-04-06T14:23:32.097Z,157.50
2023-04-06T14:24:32.108Z,157.50
2023-04-06T14:25:32.079Z,157.50
2023-04-06T14:26:32.092Z,157.50
2023-04-06T14:27:32.065Z,157.50
2023-04-06T14:28:32.060Z,157.50
2023-04-06T14:29:32.028Z,157.50
2023-04-06T14:30:32.151Z,157.50
2023-04-06T14:31:32.006Z,157.50
2023-04-06T14:32:32.039Z,157.50
2023-04-06T14:33:31.987Z,157.50
2023-04-06T14:34:31.991Z,157.50
2023-04-06T14:35:31.988Z,157.50
2023-04-06T14:36:31.976Z,157.50
2023-04-06T14:37:31.937Z,157.50
2023-04-06T14:38:31.930Z,157.50
2023-04-06T14:39:31.914Z,157.50
2023-04-06T14:40:31.945Z,157.50
2023-04-06T14:41:31.894Z,157.50
2023-04-06T14:42:31.897Z,157.50
2023-04-06T14:43:31.875Z,157.50
2023-04-06T14:44:40.021Z,157.50
2023-04-06T14:45:31.865Z,157.50
2023-04-06T14:46:32.310Z,157.50
2023-04-06T14:47:31.938Z,157.50
2023-04-06T14:48:31.820Z,157.50
2023-04-06T14:49:31.831Z,157.50
2023-04-06T14:50:31.827Z,157.50
2023-04-06T14:51:31.790Z,157.50
2023-04-06T14:52:32.946Z,157.50
2023-04-06T14:53:31.783Z,157.50
2023-04-06T14:54:31.770Z,157.50
2023-04-06T14:55:31.764Z,157.50
2023-04-06T14:56:31.734Z,157.50
2023-04-06T14:57:31.726Z,157.50
2023-04-06T14:58:31.726Z,157.50
2023-04-06T14:59:31.696Z,157.50
2023-04-06T15:00:31.704Z,157.50
2023-04-06T15:01:31.723Z,157.50
2023-04-06T15:02:31.815Z,157.50
2023-04-06T15:03:31.802Z,157.50
2023-04-06T15:04:31.918Z,151.88
2023-04-06T15:05:31.627Z,157.50
2023-04-06T15:06:31.660Z,157.50
2023-04-06T15:07:31.603Z,157.50
2023-04-06T15:08:31.597Z,157.50
2023-04-06T15:09:31.740Z,157.50
2023-04-06T15:10:31.583Z,157.50
2023-04-06T15:11:31.571Z,157.50
2023-04-06T15:12:31.999Z,151.88
2023-04-06T15:13:31.553Z,151.88
2023-04-06T15:14:31.548Z,151.88
2023-04-06T15:15:31.508Z,151.88
2023-04-06T15:16:31.541Z,151.88
2023-04-06T15:17:31.515Z,151.88
2023-04-06T15:18:32.063Z,151.88
2023-04-06T15:19:31.465Z,151.88
2023-04-06T15:20:31.456Z,151.88
2023-04-06T15:21:31.452Z,151.88
2023-04-06T15:22:31.469Z,151.88
2023-04-06T15:23:32.664Z,151.88
2023-04-06T15:24:31.426Z,151.88
2023-04-06T15:25:31.419Z,151.88
2023-04-06T15:26:31.402Z,151.88
2023-04-06T15:27:31.378Z,151.88
2023-04-06T15:28:31.374Z,151.88
2023-04-06T15:29:31.351Z,151.88
2023-04-06T15:30:31.358Z,151.88
2023-04-06T15:31:37.770Z,151.88
2023-04-06T15:32:32.368Z,151.88
2023-04-06T15:33:31.312Z,151.88
2023-04-06T15:34:31.353Z,151.88
2023-04-06T15:35:31.333Z,151.88
2023-04-06T15:36:31.286Z,151.88
2023-04-06T15:37:31.286Z,151.88
2023-04-06T15:38:31.264Z,151.88
2023-04-06T15:39:31.244Z,151.88
2023-04-06T15:40:31.228Z,151.88
2023-04-06T15:41:31.216Z,151.88
2023-04-06T15:42:31.218Z,151.88
2023-04-06T15:43:31.188Z,151.88
2023-04-06T15:44:31.175Z,151.88
2023-04-06T15:45:31.165Z,151.88
2023-04-06T15:46:31.588Z,151.88
2023-04-06T15:47:31.152Z,151.88
2023-04-06T15:48:31.134Z,146.25
2023-04-06T15:49:31.134Z,140.62
2023-04-06T15:50:31.108Z,140.62
2023-04-06T15:51:31.095Z,140.62
2023-04-06T15:52:31.126Z,140.62
2023-04-06T15:53:31.071Z,140.62
2023-04-06T15:54:31.084Z,140.62
2023-04-06T15:55:31.072Z,129.38
2023-04-06T15:56:31.052Z,123.75
2023-04-06T15:57:31.049Z,129.38
2023-04-06T15:58:31.054Z,135.00
2023-04-06T15:59:31.006Z,135.00
2023-04-06T16:00:31.003Z,135.00
2023-04-06T16:01:31.027Z,135.00
2023-04-06T16:02:31.143Z,135.00
2023-04-06T16:03:31.205Z,135.00
2023-04-06T16:04:31.098Z,135.00
2023-04-06T16:05:34.059Z,135.00
2023-04-06T16:06:30.947Z,129.38
2023-04-06T16:07:30.919Z,129.38
2023-04-06T16:08:30.904Z,129.38
2023-04-06T16:09:30.921Z,129.38
2023-04-06T16:10:31.332Z,123.75
2023-04-06T16:11:30.896Z,123.75
2023-04-06T16:12:30.858Z,123.75
2023-04-06T16:13:30.908Z,123.75
2023-04-06T16:14:30.889Z,123.75
2023-04-06T16:15:30.942Z,123.75
2023-04-06T16:16:31.104Z,118.12
2023-04-06T16:17:30.840Z,118.12
2023-04-06T16:18:30.798Z,118.12
2023-04-06T16:19:30.793Z,112.50
2023-04-06T16:20:30.776Z,112.50
2023-04-06T16:21:30.747Z,112.50
2023-04-06T16:22:30.742Z,112.50
2023-04-06T16:23:30.739Z,112.50
2023-04-06T16:24:30.739Z,112.50
2023-04-06T16:25:30.722Z,106.88
2023-04-06T16:26:30.749Z,106.88
2023-04-06T16:27:30.677Z,106.88
2023-04-06T16:28:30.704Z,106.88
2023-04-06T16:29:30.660Z,101.25
2023-04-06T16:30:30.670Z,101.25
2023-04-06T16:31:30.663Z,101.25
2023-04-06T16:32:30.669Z,101.25
2023-04-06T16:33:30.613Z,95.62
2023-04-06T16:34:30.641Z,95.62
2023-04-06T16:35:30.616Z,95.62
2023-04-06T16:36:30.601Z,95.62
2023-04-06T16:37:30.582Z,95.62
2023-04-06T16:38:30.561Z,90.00
2023-04-06T16:39:30.568Z,90.00
2023-04-06T16:40:30.589Z,90.00
2023-04-06T16:41:30.552Z,90.00
2023-04-06T16:42:30.534Z,84.38
2023-04-06T16:43:30.504Z,84.38
2023-04-06T16:44:30.501Z,84.38
2023-04-06T16:45:30.509Z,78.75
2023-04-06T16:46:30.737Z,78.75
2023-04-06T16:47:30.540Z,78.75
2023-04-06T16:48:30.469Z,73.12
2023-04-06T16:49:30.458Z,73.12
2023-04-06T16:50:30.428Z,67.50
2023-04-06T16:51:30.432Z,67.50
2023-04-06T16:52:30.441Z,67.50
2023-04-06T16:53:30.393Z,61.88
2023-04-06T16:54:30.396Z,61.88
2023-04-06T16:55:30.371Z,61.88
2023-04-06T16:56:30.385Z,56.25
2023-04-06T16:57:30.355Z,56.25
2023-04-06T16:58:30.360Z,56.25
2023-04-06T16:59:30.324Z,50.62
2023-04-06T17:00:30.314Z,50.62
2023-04-06T17:01:30.469Z,50.62
2023-04-06T17:02:30.339Z,50.62
2023-04-06T17:03:30.780Z,50.62
2023-04-06T17:04:30.310Z,50.62
2023-04-06T17:05:30.274Z,50.62
2023-04-06T17:06:30.250Z,45.00
2023-04-06T17:07:30.272Z,45.00
2023-04-06T17:08:30.223Z,45.00
2023-04-06T17:09:30.255Z,39.38
2023-04-06T17:10:33.839Z,39.38
2023-04-06T17:11:43.788Z,50.62
2023-04-06T17:12:31.176Z,56.25
2023-04-06T17:13:30.176Z,56.25
2023-04-06T17:14:30.191Z,45.00
2023-04-06T17:15:30.140Z,28.12
2023-04-06T17:16:30.153Z,22.50
2023-04-06T17:17:30.136Z,16.88
2023-04-06T17:18:30.110Z,16.88
2023-04-06T17:19:30.142Z,16.88
2023-04-06T17:20:30.091Z,11.25
2023-04-06T17:21:30.080Z,11.25
2023-04-06T17:22:30.078Z,11.25
2023-04-06T17:23:30.046Z,11.25
2023-04-06T17:24:30.048Z,11.25
2023-04-06T17:25:30.042Z,5.62
2023-04-06T17:26:30.039Z,5.62
2023-04-06T17:27:30.026Z,5.62
2023-04-06T17:28:30.013Z,5.62
2023-04-06T17:29:29.999Z,5.62
2023-04-06T17:30:30.025Z,5.62
2023-04-06T17:31:29.987Z,5.62
2023-04-06T17:32:30.036Z,5.62
2023-04-06T17:33:29.943Z,5.62
2023-04-06T17:34:29.954Z,5.62
2023-04-06T17:35:29.924Z,5.62
2023-04-06T17:36:29.950Z,5.62
2023-04-06T17:37:29.917Z,0.00
2023-04-06T17:38:29.882Z,0.00
2023-04-06T17:39:29.866Z,0.00
2023-04-06T17:40:29.868Z,0.00
2023-04-06T17:41:29.843Z,0.00
2023-04-06T17:42:29.867Z,0.00
2023-04-06T17:43:29.818Z,0.00
2023-04-06T17:44:29.816Z,0.00
2023-04-06T17:45:29.836Z,0.00
2023-04-06T17:46:29.917Z,0.00
2023-04-06T17:47:29.831Z,0.00
2023-04-06T17:48:29.825Z,0.00
2023-04-06T17:49:29.770Z,0.00
2023-04-06T17:50:29.739Z,0.00
2023-04-06T17:51:29.741Z,0.00
2023-04-06T17:52:29.744Z,0.00
2023-04-06T17:53:29.727Z,0.00
2023-04-06T17:54:29.713Z,0.00
2023-04-06T17:55:29.679Z,0.00
2023-04-06T17:56:29.682Z,0.00
2023-04-06T17:57:30.578Z,0.00
2023-04-06T17:58:29.682Z,0.00
2023-04-06T17:59:29.650Z,0.00
2023-04-06T18:00:29.642Z,0.00
2023-04-06T18:01:29.716Z,0.00
2023-04-06T18:02:29.756Z,0.00
2023-04-06T18:03:29.652Z,0.00
2023-04-06T18:04:29.656Z,0.00
2023-04-06T18:05:29.555Z,0.00
2023-04-06T18:06:29.568Z,0.00
2023-04-06T18:07:29.628Z,0.00
2023-04-06T18:08:29.549Z,0.00
2023-04-06T18:09:29.531Z,0.00
2023-04-06T18:10:29.511Z,0.00
2023-04-06T18:11:29.509Z,0.00
2023-04-06T18:12:29.490Z,0.00
2023-04-06T18:13:29.494Z,0.00
2023-04-06T18:14:29.462Z,0.00
2023-04-06T18:15:29.517Z,0.00
2023-04-06T18:16:29.491Z,0.00
2023-04-06T18:17:29.473Z,0.00
2023-04-06T18:18:29.475Z,0.00
2023-04-06T18:19:29.452Z,0.00
2023-04-06T18:20:29.428Z,0.00
2023-04-06T18:21:29.399Z,0.00
2023-04-06T18:22:29.390Z,0.00
2023-04-06T18:23:29.406Z,0.00
2023-04-06T18:24:41.445Z,0.00
2023-04-06T18:25:30.350Z,0.00
2023-04-06T18:26:29.336Z,0.00
2023-04-06T18:27:29.326Z,0.00
2023-04-06T18:28:29.336Z,0.00
2023-04-06T18:29:29.287Z,0.00
2023-04-06T18:30:29.290Z,0.00
2023-04-06T18:31:29.282Z,0.00
2023-04-06T18:32:29.262Z,0.00
2023-04-06T18:33:29.269Z,0.00
2023-04-06T18:34:29.271Z,0.00
2023-04-06T18:35:29.237Z,0.00
2023-04-06T18:36:29.245Z,0.00
2023-04-06T18:37:29.193Z,0.00
2023-04-06T18:38:29.205Z,0.00
2023-04-06T18:39:29.186Z,0.00
2023-04-06T18:40:29.174Z,0.00
2023-04-06T18:41:29.162Z,0.00
2023-04-06T18:42:29.224Z,0.00
2023-04-06T18:43:29.154Z,0.00
2023-04-06T18:44:29.114Z,0.00
2023-04-06T18:45:29.125Z,0.00
2023-04-06T18:46:29.125Z,0.00
2023-04-06T18:47:29.119Z,0.00
2023-04-06T18:48:29.076Z,0.00
2023-04-06T18:49:29.087Z,0.00
2023-04-06T18:50:29.065Z,0.00
2023-04-06T18:51:29.035Z,0.00
2023-04-06T18:52:29.057Z,0.00
2023-04-06T18:53:29.020Z,0.00
2023-04-06T18:54:29.013Z,0.00
2023-04-06T18:55:29.013Z,0.00
2023-04-06T18:56:28.986Z,0.00
2023-04-06T18:57:28.988Z,0.00
2023-04-06T18:58:36.175Z,0.00
2023-04-06T18:59:28.957Z,0.00
2023-04-06T19:00:28.938Z,0.00
2023-04-06T19:01:37.786Z,0.00
2023-04-06T19:02:29.068Z,0.00
2023-04-06T19:03:29.155Z,0.00
2023-04-06T19:04:29.331Z,0.00
2023-04-06T19:05:28.881Z,0.00
2023-04-06T19:06:28.892Z,0.00
2023-04-06T19:07:28.906Z,0.00
2023-04-06T19:08:28.917Z,0.00
2023-04-06T19:09:29.001Z,0.00
2023-04-06T19:10:28.838Z,0.00
2023-04-06T19:11:28.817Z,0.00
2023-04-06T19:12:28.824Z,0.00
2023-04-06T19:13:28.789Z,0.00
2023-04-06T19:14:28.802Z,0.00
2023-04-06T19:15:28.809Z,0.00
2023-04-06T19:16:28.770Z,0.00
2023-04-06T19:17:28.784Z,0.00
2023-04-06T19:18:28.741Z,0.00
2023-04-06T19:19:28.742Z,0.00
2023-04-06T19:20:28.728Z,0.00
2023-04-06T19:21:28.724Z,0.00
2023-04-06T19:22:28.721Z,0.00
2023-04-06T19:23:28.681Z,0.00
2023-04-06T19:24:28.688Z,0.00
2023-04-06T19:25:28.676Z,0.00
2023-04-06T19:26:28.666Z,0.00
2023-04-06T19:27:28.634Z,0.00
2023-04-06T19:28:28.629Z,0.00
2023-04-06T19:29:28.611Z,0.00
2023-04-06T19:30:28.618Z,0.00
2023-04-06T19:31:28.609Z,0.00
2023-04-06T19:32:28.599Z,0.00
2023-04-06T19:33:28.561Z,0.00
2023-04-06T19:34:28.588Z,0.00
2023-04-06T19:35:28.566Z,0.00
2023-04-06T19:36:28.566Z,0.00
2023-04-06T19:37:28.530Z,0.00
2023-04-06T19:38:29.077Z,0.00
2023-04-06T19:39:28.532Z,0.00
2023-04-06T19:40:28.499Z,0.00
2023-04-06T19:41:28.485Z,0.00
2023-04-06T19:42:28.461Z,0.00
2023-04-06T19:43:28.456Z,0.00
2023-04-06T19:44:28.478Z,0.00
2023-04-06T19:45:28.432Z,0.00
2023-04-06T19:46:28.510Z,0.00
2023-04-06T19:47:28.422Z,0.00
2023-04-06T19:48:28.422Z,0.00
2023-04-06T19:49:28.455Z,0.00
2023-04-06T19:50:28.387Z,0.00
2023-04-06T19:51:28.396Z,0.00
2023-04-06T19:52:29.513Z,0.00
2023-04-06T19:53:28.337Z,0.00
2023-04-06T19:54:28.351Z,0.00
2023-04-06T19:55:28.315Z,0.00
2023-04-06T19:56:28.321Z,0.00
2023-04-06T19:57:28.316Z,0.00
2023-04-06T19:58:28.285Z,0.00
2023-04-06T19:59:28.281Z,0.00
2023-04-06T20:00:28.275Z,0.00
2023-04-06T20:01:28.290Z,0.00
2023-04-06T20:02:28.341Z,0.00
2023-04-06T20:03:28.298Z,0.00
2023-04-06T20:04:28.276Z,0.00
2023-04-06T20:05:28.198Z,0.00
2023-04-06T20:06:28.208Z,0.00
2023-04-06T20:07:28.183Z,0.00
2023-04-06T20:08:28.189Z,0.00
2023-04-06T20:09:28.172Z,0.00
2023-04-06T20:10:28.163Z,0.00
2023-04-06T20:11:28.156Z,0.00
2023-04-06T20:12:28.136Z,0.00
2023-04-06T20:13:29.617Z,0.00
2023-04-06T20:14:28.577Z,0.00
2023-04-06T20:15:28.097Z,0.00
2023-04-06T20:16:28.086Z,0.00
2023-04-06T20:17:28.122Z,0.00
2023-04-06T20:18:28.056Z,0.00
2023-04-06T20:19:28.042Z,0.00
2023-04-06T20:20:28.089Z,0.00
2023-04-06T20:21:28.014Z,0.00
2023-04-06T20:22:28.028Z,0.00
2023-04-06T20:23:28.031Z,0.00
2023-04-06T20:24:28.022Z,0.00
2023-04-06T20:25:27.972Z,0.00
2023-04-06T20:26:27.984Z,0.00
2023-04-06T20:27:27.962Z,0.00
2023-04-06T20:28:27.955Z,0.00
2023-04-06T20:29:27.973Z,0.00
2023-04-06T20:30:27.911Z,0.00
2023-04-06T20:31:27.941Z,0.00
2023-04-06T20:32:28.000Z,0.00
2023-04-06T20:33:27.903Z,0.00
2023-04-06T20:34:27.876Z,0.00
2023-04-06T20:35:27.913Z,0.00
2023-04-06T20:36:27.883Z,0.00
2023-04-06T20:37:27.866Z,0.00
2023-04-06T20:38:33.217Z,0.00
2023-04-06T20:39:28.818Z,0.00
2023-04-06T20:40:27.806Z,0.00
2023-04-06T20:41:27.793Z,0.00
2023-04-06T20:42:28.173Z,0.00
2023-04-06T20:45:26.307Z,0.00
2023-04-06T20:46:26.378Z,0.00
2023-04-06T20:47:26.355Z,0.00
2023-04-06T20:48:26.263Z,0.00
2023-04-06T20:49:26.254Z,0.00
2023-04-06T20:50:26.252Z,0.00
2023-04-06T20:51:26.231Z,0.00
2023-04-06T20:52:26.242Z,0.00
2023-04-06T20:53:26.214Z,0.00
2023-04-06T20:54:26.205Z,0.00
2023-04-06T20:55:26.208Z,0.00
2023-04-06T20:56:26.968Z,0.00
2023-04-06T20:57:26.160Z,0.00
2023-04-06T20:58:26.171Z,0.00
2023-04-06T20:59:26.169Z,0.00
2023-04-06T21:00:26.138Z,0.00
2023-04-06T21:01:26.288Z,0.00
2023-04-06T21:02:26.225Z,0.00
2023-04-06T21:03:26.272Z,0.00
2023-04-06T21:04:26.273Z,0.00
2023-04-06T21:05:26.076Z,0.00
2023-04-06T21:06:26.066Z,0.00
2023-04-06T21:07:26.064Z,0.00
2023-04-06T21:08:26.173Z,0.00
2023-04-06T21:09:26.027Z,0.00
2023-04-06T21:10:26.015Z,0.00
2023-04-06T21:11:26.022Z,0.00
2023-04-06T21:12:25.992Z,0.00
2023-04-06T21:13:26.024Z,0.00
2023-04-06T21:14:26.406Z,0.00
2023-04-06T21:15:26.023Z,0.00
2023-04-06T21:16:25.946Z,0.00
2023-04-06T21:17:25.946Z,0.00
2023-04-06T21:18:25.985Z,0.00
2023-04-06T21:19:25.941Z,0.00
2023-04-06T21:20:25.900Z,0.00
2023-04-06T21:21:25.893Z,0.00
2023-04-06T21:22:25.879Z,0.00
2023-04-06T21:23:25.880Z,0.00
2023-04-06T21:24:25.934Z,0.00
2023-04-06T21:25:25.856Z,0.00
2023-04-06T21:26:25.844Z,0.00
2023-04-06T21:27:25.822Z,0.00
2023-04-06T21:28:25.828Z,0.00
2023-04-06T21:29:25.840Z,0.00
2023-04-06T21:30:25.829Z,0.00
2023-04-06T21:31:25.862Z,0.00
2023-04-06T21:32:25.857Z,0.00
2023-04-06T21:33:25.757Z,0.00
2023-04-06T21:34:25.776Z,0.00
2023-04-06T21:35:25.735Z,0.00
2023-04-06T21:36:25.783Z,0.00
2023-04-06T21:37:25.742Z,0.00
2023-04-06T21:38:25.697Z,0.00
2023-04-06T21:39:25.696Z,0.00
2023-04-06T21:40:25.694Z,0.00
2023-04-06T21:41:25.667Z,0.00
2023-04-06T21:42:25.648Z,0.00
2023-04-06T21:43:25.663Z,0.00
2023-04-06T21:44:25.661Z,0.00
2023-04-06T21:45:25.623Z,0.00
2023-04-06T21:46:25.656Z,0.00
2023-04-06T21:47:25.649Z,0.00
2023-04-06T21:48:25.582Z,0.00
2023-04-06T21:49:25.605Z,0.00
2023-04-06T21:50:25.568Z,0.00
2023-04-06T21:51:25.566Z,0.00
2023-04-06T21:52:25.537Z,0.00
2023-04-06T21:53:25.521Z,0.00
2023-04-06T21:54:25.536Z,0.00
2023-04-06T21:55:25.556Z,0.00
2023-04-06T21:56:25.488Z,0.00
2023-04-06T21:57:25.480Z,0.00
2023-04-06T21:58:25.494Z,0.00
2023-04-06T21:59:25.485Z,0.00
2023-04-06T22:00:25.452Z,0.00
2023-04-06T22:01:25.466Z,0.00
2023-04-06T22:02:25.616Z,0.00
2023-04-06T22:03:25.561Z,0.00
2023-04-06T22:04:25.642Z,0.00
2023-04-06T22:05:25.401Z,0.00
2023-04-06T22:06:25.402Z,0.00
2023-04-06T22:07:25.374Z,0.00
2023-04-06T22:09:25.341Z,0.00
2023-04-06T22:10:25.324Z,0.00
2023-04-06T22:11:25.322Z,0.00
2023-04-06T22:12:25.303Z,0.00
2023-04-06T22:13:25.327Z,0.00
2023-04-06T22:14:25.352Z,0.00
2023-04-06T22:15:25.284Z,0.00
2023-04-06T22:16:25.326Z,0.00
2023-04-06T22:17:25.301Z,0.00
2023-04-06T22:18:25.274Z,0.00
2023-04-06T22:19:25.241Z,0.00
2023-04-06T22:20:25.256Z,0.00
2023-04-06T22:21:25.208Z,0.00
2023-04-06T22:22:25.219Z,0.00
2023-04-06T22:23:25.200Z,0.00
2023-04-06T22:24:25.178Z,0.00
2023-04-06T22:25:25.181Z,0.00
2023-04-06T22:26:25.178Z,0.00
2023-04-06T22:27:25.149Z,0.00
2023-04-06T22:28:25.160Z,0.00
2023-04-06T22:29:25.124Z,0.00
2023-04-06T22:30:25.102Z,0.00
2023-04-06T22:31:25.167Z,0.00
2023-04-06T22:32:25.140Z,0.00
2023-04-06T22:33:25.073Z,0.00
2023-04-06T22:34:25.082Z,0.00
2023-04-06T22:35:25.110Z,0.00
2023-04-06T22:36:25.050Z,0.00
2023-04-06T22:37:25.059Z,0.00
2023-04-06T22:38:25.014Z,0.00
2023-04-06T22:39:25.006Z,0.00
2023-04-06T22:40:25.017Z,0.00
2023-04-06T22:41:24.983Z,0.00
2023-04-06T22:42:24.993Z,0.00
2023-04-06T22:43:24.979Z,0.00
2023-04-06T22:44:24.979Z,0.00
2023-04-06T22:45:24.938Z,0.00
2023-04-06T22:46:24.935Z,0.00
2023-04-06T22:47:25.035Z,0.00
2023-04-06T22:48:24.993Z,0.00
2023-04-06T22:49:24.908Z,0.00
2023-04-06T22:50:24.927Z,0.00
2023-04-06T22:51:24.873Z,0.00
2023-04-06T22:52:24.899Z,0.00
2023-04-06T22:53:24.851Z,0.00
2023-04-06T22:54:24.859Z,0.00
2023-04-06T22:55:24.845Z,0.00
2023-04-06T22:56:24.837Z,0.00
2023-04-06T22:57:24.805Z,0.00
2023-04-06T22:58:24.792Z,0.00
2023-04-06T22:59:24.800Z,0.00
2023-04-06T23:00:24.788Z,0.00
2023-04-06T23:01:24.812Z,0.00
2023-04-06T23:02:24.821Z,0.00
2023-04-06T23:03:24.794Z,0.00
2023-04-06T23:04:24.846Z,0.00
2023-04-06T23:05:24.731Z,0.00
2023-04-06T23:06:24.727Z,0.00
2023-04-06T23:07:24.699Z,0.00
2023-04-06T23:08:24.682Z,0.00
2023-04-06T23:09:24.699Z,0.00
2023-04-06T23:10:24.676Z,0.00
2023-04-06T23:11:24.647Z,0.00
2023-04-06T23:12:24.649Z,0.00
2023-04-06T23:13:24.637Z,0.00
2023-04-06T23:14:24.616Z,0.00
2023-04-06T23:15:24.644Z,0.00
2023-04-06T23:16:24.622Z,0.00
2023-04-06T23:17:24.765Z,0.00
2023-04-06T23:18:24.591Z,0.00
2023-04-06T23:19:24.567Z,0.00
2023-04-06T23:20:24.545Z,0.00
2023-04-06T23:21:24.570Z,0.00
2023-04-06T23:22:24.562Z,0.00
2023-04-06T23:23:24.529Z,0.00
2023-04-06T23:24:24.504Z,0.00
2023-04-06T23:25:24.549Z,0.00
2023-04-06T23:26:24.480Z,0.00
2023-04-06T23:27:24.470Z,0.00
2023-04-06T23:28:24.474Z,0.00
2023-04-06T23:29:24.454Z,0.00
2023-04-06T23:30:24.437Z,0.00
2023-04-06T23:31:24.432Z,0.00
2023-04-06T23:32:24.476Z,0.00
2023-04-06T23:33:24.477Z,0.00
2023-04-06T23:34:24.385Z,0.00
2023-04-06T23:35:24.396Z,0.00
2023-04-06T23:36:24.367Z,0.00
2023-04-06T23:37:24.362Z,0.00
2023-04-06T23:38:24.359Z,0.00
2023-04-06T23:39:24.336Z,0.00
2023-04-06T23:40:24.337Z,0.00
2023-04-06T23:41:24.333Z,0.00
2023-04-06T23:42:28.963Z,0.00
2023-04-06T23:43:25.343Z,0.00
2023-04-06T23:44:24.282Z,0.00
2023-04-06T23:45:24.273Z,0.00
2023-04-06T23:46:24.303Z,0.00
2023-04-06T23:47:24.310Z,0.00
2023-04-06T23:48:24.229Z,0.00
2023-04-06T23:49:24.237Z,0.00
2023-04-06T23:50:24.211Z,0.00
2023-04-06T23:51:24.232Z,0.00
2023-04-06T23:52:24.192Z,0.00
2023-04-06T23:53:24.178Z,0.00
2023-04-06T23:54:24.216Z,0.00
2023-04-06T23:55:24.176Z,0.00
2023-04-06T23:56:24.142Z,0.00
2023-04-06T23:57:24.136Z,0.00
2023-04-06T23:58:24.115Z,0.00
2023-04-06T23:59:24.129Z,0.00
